Time;durP1;ratioP1;P1;durP2;ratioP2;P2;SDS_P1;SDS_P2;PMS_P1;PMS_P2;Temp;Humidity;BMP_temperature;BMP_pressure;BME280_temperature;BME280_humidity;BME280_pressure;Samples;Min_cycle;Max_cycle;Signal;HPM_P1;HPM_P2
2022/04/11 00:11:18;;;;;;;5.05;2.65;;;;;;;1.93;71.44;100469.88;30860774;28;111096;-71
2022/04/11 00:26:18;;;;;;;4.22;2.75;;;;;;;1.52;72.33;100472.66;30861077;28;97073;-70
2022/04/11 00:41:18;;;;;;;5.88;3.10;;;;;;;1.67;72.64;100467.31;30859557;28;97313;-73
2022/04/11 00:56:19;;;;;;;5.60;3.80;;;;;;;1.17;72.57;100482.91;30858291;28;96685;-71
2022/04/11 01:11:20;;;;;;;4.75;2.92;;;;;;;0.92;73.76;100488.94;30856622;28;96769;-71
2022/04/11 01:26:22;;;;;;;5.70;3.33;;;;;;;0.75;73.82;100495.28;30855680;28;97084;-70
2022/04/11 01:41:22;;;;;;;5.55;3.45;;;;;;;0.66;74.66;100500.19;30853246;28;96779;-73
2022/04/11 01:56:22;;;;;;;6.75;3.17;;;;;;;0.58;75.04;100510.31;30853496;28;97414;-71
2022/04/11 02:11:23;;;;;;;7.22;3.70;;;;;;;0.61;75.73;100517.97;30852458;28;109696;-71
2022/04/11 02:26:23;;;;;;;5.28;3.25;;;;;;;0.69;75.67;100524.53;30851426;28;112129;-71
2022/04/11 02:41:23;;;;;;;6.57;3.63;;;;;;;0.64;75.68;100530.06;30867610;28;110012;-71
2022/04/11 02:56:24;;;;;;;4.63;3.30;;;;;;;0.67;76.37;100527.25;30868178;28;96700;-71
2022/04/11 03:11:24;;;;;;;6.53;3.33;;;;;;;1.10;77.04;100518.38;30867492;28;97435;-71
2022/04/11 03:26:24;;;;;;;9.55;3.92;;;;;;;1.29;76.21;100529.31;30865511;28;107488;-70
2022/04/11 03:41:25;;;;;;;5.97;2.88;;;;;;;1.46;76.04;100532.59;30864164;28;96675;-71
2022/04/11 03:56:25;;;;;;;11.00;4.25;;;;;;;1.59;76.10;100528.22;30861538;28;97547;-69
2022/04/11 04:11:25;;;;;;;7.30;3.03;;;;;;;1.80;76.16;100535.56;30859676;28;96717;-70
2022/04/11 04:26:26;;;;;;;5.50;3.40;;;;;;;1.88;75.64;100556.06;30856344;28;114232;-72
2022/04/11 04:41:26;;;;;;;9.68;4.20;;;;;;;1.89;75.54;100574.38;30853307;28;98760;-73
2022/04/11 04:56:28;;;;;;;10.23;3.55;;;;;;;2.15;75.54;100587.50;30852578;28;96656;-72
2022/04/11 05:11:29;;;;;;;5.03;3.00;;;;;;;2.69;74.89;100595.09;30850294;28;96893;-72
2022/04/11 05:26:29;;;;;;;8.60;3.35;;;;;;;3.16;74.77;100597.03;30853560;28;101094;-71
2022/04/11 05:41:29;;;;;;;3.00;2.13;;;;;;;3.50;73.40;100602.41;30851917;28;116167;-73
2022/04/11 05:56:30;;;;;;;11.40;2.42;;;;;;;4.22;73.31;100612.78;30848119;28;96641;-75
2022/04/11 06:11:30;;;;;;;8.65;2.55;;;;;;;4.89;71.59;100616.34;30859393;28;97322;-72
2022/04/11 06:26:31;;;;;;;5.05;2.28;;;;;;;5.54;69.98;100626.13;30860616;28;97206;-74
2022/04/11 06:41:31;;;;;;;6.45;2.88;;;;;;;6.10;68.37;100623.19;30857292;28;97141;-72
2022/04/11 06:56:31;;;;;;;11.00;2.10;;;;;;;7.60;66.11;100617.19;30859089;28;97150;-83
2022/04/11 07:11:32;;;;;;;8.95;2.55;;;;;;;8.42;63.62;100625.50;30816679;28;97476;-80
2022/04/11 07:26:32;;;;;;;9.50;2.17;;;;;;;9.20;59.56;100621.63;30862724;28;96785;-80
2022/04/11 07:41:32;;;;;;;9.25;2.17;;;;;;;9.88;57.23;100618.38;30861497;28;96951;-81
2022/04/11 07:56:32;;;;;;;6.07;2.03;;;;;;;12.15;54.52;100620.41;30860135;28;97473;-81
2022/04/11 08:11:33;;;;;;;5.95;1.95;;;;;;;12.44;49.02;100625.19;30858970;28;98990;-79
2022/04/11 08:26:33;;;;;;;3.67;1.67;;;;;;;13.76;44.86;100645.84;30859195;28;96818;-80
2022/04/11 08:41:36;;;;;;;5.05;1.50;;;;;;;13.16;40.65;100656.28;30855942;28;111212;-79
2022/04/11 08:56:36;;;;;;;7.57;1.80;;;;;;;12.64;39.47;100647.00;30855396;28;97636;-74
2022/04/11 09:11:38;;;;;;;7.72;1.83;;;;;;;11.41;39.45;100655.09;30852832;28;96700;-77
2022/04/11 09:26:39;;;;;;;5.07;1.77;;;;;;;13.35;36.29;100654.16;30852387;28;97635;-75
2022/04/11 09:41:45;;;;;;;6.53;1.47;;;;;;;25.80;26.33;100652.47;30850255;28;98571;-71
2022/04/11 09:56:45;;;;;;;4.87;1.50;;;;;;;16.36;27.96;100641.06;30851035;28;97179;-78
2022/04/11 10:11:46;;;;;;;3.75;1.65;;;;;;;13.12;33.41;100644.28;30850963;28;97292;-82
2022/04/11 10:26:55;;;;;;;5.88;1.40;;;;;;;17.41;28.55;100627.44;30851081;28;101038;-78
2022/04/11 10:41:56;;;;;;;4.47;1.37;;;;;;;25.79;18.81;100615.31;30849613;28;96902;-83
2022/04/11 10:56:56;;;;;;;7.35;2.90;;;;;;;15.20;28.66;100632.22;30859124;28;96691;-80
2022/04/11 11:11:56;;;;;;;4.18;1.50;;;;;;;13.31;34.22;100621.59;30865544;28;96818;-83
2022/04/11 11:27:00;;;;;;;4.65;1.30;;;;;;;21.02;19.87;100619.19;30865015;28;96737;-75
2022/04/11 11:42:03;;;;;;;2.67;1.30;;;;;;;12.75;30.01;100615.53;30863301;28;97577;-80
2022/04/11 11:57:14;;;;;;;3.33;1.33;;;;;;;16.87;25.07;100589.59;30862266;28;97260;-77
2022/04/11 12:12:17;;;;;;;2.83;1.63;;;;;;;18.44;24.10;100572.25;30865606;28;97770;-85
2022/04/11 12:27:21;;;;;;;4.50;1.90;;;;;;;17.97;24.29;100566.94;30859554;28;97317;-78
2022/04/11 12:42:23;;;;;;;7.57;2.00;;;;;;;17.74;26.29;100556.56;30857543;28;98616;-80
2022/04/11 12:57:26;;;;;;;3.13;1.70;;;;;;;14.22;28.87;100535.09;30856955;28;97694;-85
2022/04/11 20:59:36;;;;;;;79.30;34.95;;;;;;;4.61;50.98;100508.66;31083358;28;96504;-70
2022/04/11 21:14:36;;;;;;;43.10;21.95;;;;;;;4.57;51.84;100510.72;30949360;28;97778;-76
2022/04/11 21:29:36;;;;;;;49.47;22.20;;;;;;;4.42;52.44;100525.97;30948182;28;97041;-72
2022/04/11 21:44:37;;;;;;;82.85;33.80;;;;;;;4.17;53.40;100548.16;30950914;28;96725;-82
2022/04/11 21:59:38;;;;;;;70.00;27.98;;;;;;;4.02;53.68;100545.78;30929550;28;100526;-75
2022/04/11 22:14:38;;;;;;;81.80;36.35;;;;;;;3.62;54.91;100547.97;30867436;28;96706;-69
2022/04/11 22:29:38;;;;;;;63.72;28.77;;;;;;;3.29;55.68;100545.13;30865692;28;110454;-78
2022/04/11 22:44:39;;;;;;;57.47;27.58;;;;;;;3.00;56.46;100540.22;30864480;28;100029;-73
2022/04/11 22:59:39;;;;;;;58.65;28.98;;;;;;;2.72;57.79;100536.16;30863348;28;96683;-75
2022/04/11 23:14:39;;;;;;;58.10;28.65;;;;;;;2.41;59.01;100521.75;30860086;28;110579;-77
2022/04/11 23:29:40;;;;;;;47.42;26.17;;;;;;;2.14;59.43;100510.41;30860505;28;96757;-82
2022/04/11 23:44:40;;;;;;;51.58;27.50;;;;;;;1.91;60.52;100506.78;30858554;28;96642;-80
2022/04/11 23:59:40;;;;;;;51.75;29.15;;;;;;;1.57;61.45;100510.88;30857711;28;111608;-77
